Time;durP1;ratioP1;P1;durP2;ratioP2;P2;SDS_P1;SDS_P2;PMS_P1;PMS_P2;Temp;Humidity;BMP_temperature;BMP_pressure;BME280_temperature;BME280_humidity;BME280_pressure;Samples;Min_cycle;Max_cycle;Signal;HPM_P1;HPM_P2
2021/04/11 00:01:43;;;;;;;16.30;14.57;;;;;;;11.32;73.00;100743.22;5008466;28;20052;-73
2021/04/11 00:04:09;;;;;;;16.33;14.15;;;;;;;11.30;72.45;100744.22;5008471;28;20054;-74
2021/04/11 00:06:36;;;;;;;15.50;13.77;;;;;;;11.34;72.59;100736.13;5008391;28;20450;-73
2021/04/11 00:09:04;;;;;;;15.35;13.85;;;;;;;11.41;71.82;100728.91;5009948;28;20399;-73
2021/04/11 00:11:30;;;;;;;14.38;12.00;;;;;;;11.21;72.76;100725.41;5007454;28;20042;-74
2021/04/11 00:13:57;;;;;;;16.90;12.23;;;;;;;11.27;72.81;100719.06;5006564;28;20124;-73
2021/04/11 00:16:24;;;;;;;13.82;11.93;;;;;;;11.24;72.55;100711.41;5008182;28;20065;-74
2021/04/11 00:18:50;;;;;;;14.77;11.55;;;;;;;11.31;72.31;100704.13;5007725;28;20050;-74
2021/04/11 00:21:18;;;;;;;19.30;12.45;;;;;;;11.12;73.22;100684.06;5007875;28;20046;-75
2021/04/11 00:23:45;;;;;;;14.10;11.15;;;;;;;11.04;73.68;100690.56;5006835;28;20046;-74
2021/04/11 00:26:12;;;;;;;14.25;10.80;;;;;;;11.09;72.93;100686.84;5005623;28;20141;-75
2021/04/11 00:28:38;;;;;;;11.63;10.50;;;;;;;11.10;73.15;100691.13;5006234;28;20068;-74
2021/04/11 00:31:05;;;;;;;12.02;10.13;;;;;;;11.04;73.61;100688.81;5007627;28;20038;-72
2021/04/11 00:33:37;;;;;;;11.48;10.18;;;;;;;11.21;73.18;100688.03;5007183;28;20095;-72
2021/04/11 00:36:10;;;;;;;12.00;10.75;;;;;;;11.38;72.36;100685.50;5009937;28;20455;-72
2021/04/11 00:38:37;;;;;;;14.00;10.10;;;;;;;11.16;73.24;100674.34;5011759;28;20061;-73
2021/04/11 00:41:23;;;;;;;11.80;10.70;;;;;;;11.19;73.21;100667.25;5010829;28;20090;-72
2021/04/11 00:43:51;;;;;;;11.60;10.40;;;;;;;11.26;71.62;100665.19;5011084;28;20057;-73
2021/04/11 00:46:33;;;;;;;10.82;9.75;;;;;;;11.05;72.94;100656.59;5011142;28;20070;-73
2021/04/11 00:49:01;;;;;;;11.27;10.10;;;;;;;11.01;73.72;100634.16;5011511;28;20121;-73
2021/04/11 00:51:31;;;;;;;12.13;10.75;;;;;;;11.12;73.71;100641.50;5010382;28;20039;-73
2021/04/11 00:54:03;;;;;;;11.90;10.70;;;;;;;11.00;72.87;100633.31;5011117;28;20044;-73
2021/04/11 00:56:32;;;;;;;12.35;11.05;;;;;;;11.01;73.52;100621.94;5011032;28;20080;-74
2021/04/11 00:59:01;;;;;;;11.40;10.25;;;;;;;11.04;73.23;100620.97;5009697;28;20069;-73
2021/04/11 01:01:29;;;;;;;11.25;10.05;;;;;;;11.15;73.78;100612.66;5008617;28;20506;-74
2021/04/11 01:03:56;;;;;;;13.70;10.95;;;;;;;11.27;72.60;100610.31;5009716;28;20099;-75
2021/04/11 01:06:29;;;;;;;13.18;11.63;;;;;;;11.21;72.88;100615.81;5010734;28;20042;-74
2021/04/11 01:08:57;;;;;;;12.43;10.63;;;;;;;11.09;72.18;100618.16;5007713;28;20132;-73
2021/04/11 01:11:31;;;;;;;9.85;8.95;;;;;;;10.98;72.90;100616.88;5009760;28;20057;-74
2021/04/11 01:14:01;;;;;;;14.35;11.63;;;;;;;11.12;73.16;100611.03;5009401;28;20416;-73
2021/04/11 01:16:30;;;;;;;11.55;10.38;;;;;;;11.20;72.25;100600.25;5008417;28;20409;-73
2021/04/11 01:18:59;;;;;;;11.90;10.65;;;;;;;11.07;73.25;100602.56;5009846;28;20054;-73
2021/04/11 01:22:14;;;;;;;13.45;10.70;;;;;;;11.14;72.99;100596.16;5008528;28;20046;-75
2021/04/11 01:24:45;;;;;;;12.88;11.07;;;;;;;10.97;72.81;100593.47;4981846;28;20103;-76
2021/04/11 01:27:18;;;;;;;12.02;10.80;;;;;;;11.03;73.27;100582.78;5010340;28;20565;-77
2021/04/11 01:29:47;;;;;;;18.30;13.25;;;;;;;10.98;74.07;100569.09;5008171;28;20118;-77
2021/04/11 01:32:15;;;;;;;14.45;12.30;;;;;;;10.87;74.61;100580.03;5010069;28;20121;-77
2021/04/11 01:34:43;;;;;;;14.50;11.32;;;;;;;10.93;74.57;100579.75;5007829;28;20098;-77
2021/04/11 01:37:14;;;;;;;12.27;10.98;;;;;;;10.99;74.21;100583.81;5008703;28;20057;-76
2021/04/11 01:39:42;;;;;;;12.05;10.77;;;;;;;10.97;73.62;100586.50;5008795;28;20077;-76
2021/04/11 01:42:12;;;;;;;16.67;12.52;;;;;;;10.99;74.14;100589.03;5009340;28;20096;-76
2021/04/11 01:44:46;;;;;;;14.57;13.15;;;;;;;11.23;73.21;100603.53;5008948;28;20054;-76
2021/04/11 01:47:15;;;;;;;15.30;12.88;;;;;;;11.16;73.95;100601.28;5008690;28;20129;-76
2021/04/11 01:49:44;;;;;;;14.15;12.68;;;;;;;11.12;74.32;100607.56;5009757;28;20038;-77
2021/04/11 01:52:18;;;;;;;16.98;14.07;;;;;;;11.27;73.20;100596.41;5008400;28;20049;-77
2021/04/11 01:54:46;;;;;;;16.13;13.18;;;;;;;11.30;73.32;100611.09;5009693;28;20050;-77
2021/04/11 01:57:23;;;;;;;16.80;13.15;;;;;;;11.07;74.43;100604.31;5008716;28;20488;-76
2021/04/11 02:00:10;;;;;;;13.38;11.82;;;;;;;11.21;72.98;100589.72;5007742;28;20046;-76
2021/04/11 02:02:39;;;;;;;13.30;11.93;;;;;;;11.19;72.76;100580.28;5009527;28;20060;-77
2021/04/11 02:05:16;;;;;;;17.50;13.45;;;;;;;11.29;73.18;100584.13;5007616;28;20044;-76
2021/04/11 02:07:48;;;;;;;14.10;12.68;;;;;;;11.30;73.21;100579.78;5007246;28;20405;-73
2021/04/11 02:10:21;;;;;;;13.75;12.35;;;;;;;11.32;72.28;100577.94;5009818;28;20038;-73
2021/04/11 02:13:11;;;;;;;15.32;12.98;;;;;;;11.31;72.61;100573.63;5007937;28;20046;-73
2021/04/11 02:15:44;;;;;;;12.40;11.13;;;;;;;11.49;71.40;100563.13;5007730;28;20042;-74
2021/04/11 02:18:12;;;;;;;15.88;12.25;;;;;;;11.47;71.80;100564.16;5009879;28;20050;-74
2021/04/11 02:20:42;;;;;;;13.23;10.45;;;;;;;11.19;72.85;100567.25;5007837;28;20042;-73
2021/04/11 02:23:12;;;;;;;14.35;10.70;;;;;;;11.26;72.75;100560.81;5009658;28;20493;-74
2021/04/11 02:25:43;;;;;;;16.95;11.65;;;;;;;11.15;73.57;100557.88;5006433;28;20037;-74
2021/04/11 02:28:13;;;;;;;13.77;10.57;;;;;;;11.32;73.23;100544.84;5010435;28;20500;-74
2021/04/11 02:30:47;;;;;;;14.52;11.25;;;;;;;11.35;72.50;100539.50;5009032;28;20094;-74
2021/04/11 02:33:17;;;;;;;13.82;10.63;;;;;;;11.28;73.50;100538.06;5009051;28;20072;-73
2021/04/11 02:35:44;;;;;;;13.55;12.15;;;;;;;11.28;73.09;100544.13;5008952;28;20042;-73
2021/04/11 02:38:13;;;;;;;13.00;11.73;;;;;;;11.38;72.44;100559.38;4991981;28;20499;-73
2021/04/11 02:40:44;;;;;;;11.55;10.55;;;;;;;11.34;73.16;100560.44;5007631;28;20050;-72
2021/04/11 02:43:19;;;;;;;13.80;11.15;;;;;;;11.45;72.47;100561.63;5007158;28;20045;-75
2021/04/11 02:45:47;;;;;;;12.05;10.85;;;;;;;11.57;71.49;100554.09;5009297;28;20084;-75
2021/04/11 02:48:16;;;;;;;13.73;11.35;;;;;;;11.55;71.56;100552.41;5009117;28;20049;-75
2021/04/11 02:50:59;;;;;;;12.20;10.57;;;;;;;11.60;71.15;100549.56;5008795;28;20045;-76
2021/04/11 02:53:37;;;;;;;14.85;11.88;;;;;;;11.37;72.34;100558.53;5006716;28;20065;-76
2021/04/11 02:56:07;;;;;;;13.13;11.82;;;;;;;11.46;72.01;100552.03;5008682;28;20053;-76
2021/04/11 02:58:38;;;;;;;11.68;10.55;;;;;;;11.49;71.70;100560.53;5006514;28;20091;-75
2021/04/11 03:01:18;;;;;;;12.95;11.38;;;;;;;11.47;71.81;100559.78;5008620;28;20046;-74
2021/04/11 03:03:45;;;;;;;13.00;11.35;;;;;;;11.49;71.56;100552.69;5007718;28;20042;-74
2021/04/11 03:06:19;;;;;;;13.20;11.73;;;;;;;11.44;72.06;100557.28;5007631;28;20042;-73
2021/04/11 03:08:50;;;;;;;13.88;12.48;;;;;;;11.48;72.16;100556.22;5006961;28;20050;-75
2021/04/11 03:11:31;;;;;;;13.35;11.80;;;;;;;11.47;72.36;100556.31;5008748;28;20042;-75
2021/04/11 03:14:01;;;;;;;14.13;12.02;;;;;;;11.34;73.32;100548.22;5006659;28;20408;-75
2021/04/11 03:16:33;;;;;;;14.07;12.57;;;;;;;11.36;73.01;100554.22;5007998;28;20050;-75
2021/04/11 03:19:01;;;;;;;14.40;11.80;;;;;;;11.41;72.54;100557.47;5007325;28;20054;-76
2021/04/11 03:21:28;;;;;;;11.80;10.73;;;;;;;11.23;72.74;100569.59;5007174;28;20079;-77
2021/04/11 03:23:57;;;;;;;12.45;11.15;;;;;;;11.41;72.22;100554.84;5007360;28;20053;-76
2021/04/11 03:26:41;;;;;;;14.18;12.75;;;;;;;11.32;73.10;100550.06;5006905;28;20138;-76
2021/04/11 03:29:13;;;;;;;13.38;11.95;;;;;;;11.41;72.92;100549.63;5007876;28;20487;-77
2021/04/11 03:31:47;;;;;;;12.80;11.63;;;;;;;11.32;73.41;100557.06;5007269;28;20080;-77
2021/04/11 03:34:17;;;;;;;14.07;12.60;;;;;;;11.47;72.72;100543.25;5006933;28;20049;-77
2021/04/11 03:36:46;;;;;;;12.88;11.68;;;;;;;11.44;72.62;100538.19;5005623;28;20257;-76
2021/04/11 03:39:14;;;;;;;12.85;11.55;;;;;;;11.42;72.83;100538.25;5006131;28;20046;-77
2021/04/11 03:41:42;;;;;;;11.45;10.38;;;;;;;11.41;72.82;100540.97;5008158;28;20053;-76
2021/04/11 03:44:18;;;;;;;13.02;11.73;;;;;;;11.42;73.07;100535.66;5007548;28;20050;-77
2021/04/11 03:47:10;;;;;;;12.10;10.88;;;;;;;11.53;73.02;100537.75;5008238;28;20054;-77
2021/04/11 03:49:55;;;;;;;11.57;10.48;;;;;;;11.53;72.86;100530.75;4990268;28;20045;-77
2021/04/11 03:52:28;;;;;;;12.23;10.95;;;;;;;11.47;72.84;100520.63;4990896;28;20375;-78
2021/04/11 03:55:00;;;;;;;12.55;11.35;;;;;;;11.50;72.75;100515.25;5006525;28;20057;-76
2021/04/11 03:57:36;;;;;;;12.80;11.27;;;;;;;11.38;73.90;100521.06;5006277;28;20046;-77
2021/04/11 04:00:11;;;;;;;13.32;11.35;;;;;;;11.45;73.64;100518.97;5007147;28;20108;-77
2021/04/11 04:02:46;;;;;;;13.13;11.35;;;;;;;11.42;73.71;100513.94;5007640;28;20182;-77
2021/04/11 04:05:25;;;;;;;12.48;11.27;;;;;;;11.37;74.40;100521.97;5006444;28;20045;-77
2021/04/11 04:07:58;;;;;;;12.55;11.40;;;;;;;11.34;74.46;100516.06;5006159;28;20057;-77
2021/04/11 04:10:30;;;;;;;13.85;12.40;;;;;;;11.30;74.76;100510.16;5011010;28;20042;-77
2021/04/11 04:13:06;;;;;;;13.85;12.40;;;;;;;11.21;75.84;100502.78;5010048;28;20549;-78
2021/04/11 04:15:44;;;;;;;18.98;13.45;;;;;;;11.28;74.95;100494.56;5010648;28;20053;-77
2021/04/11 04:18:26;;;;;;;11.50;10.50;;;;;;;11.34;74.47;100496.00;5010010;28;20129;-76
2021/04/11 04:21:15;;;;;;;12.57;11.27;;;;;;;11.53;73.02;100491.59;5010010;28;20042;-77
2021/04/11 04:23:55;;;;;;;12.40;11.13;;;;;;;11.47;73.02;100481.44;5009644;28;20053;-76
2021/04/11 04:26:50;;;;;;;12.63;11.45;;;;;;;11.51;73.12;100488.22;4990845;28;20054;-77
2021/04/11 04:29:59;;;;;;;11.20;10.05;;;;;;;11.39;73.37;100488.81;4993722;28;20567;-77
2021/04/11 04:32:35;;;;;;;15.38;11.25;;;;;;;11.30;74.39;100481.44;5010959;28;20060;-77
2021/04/11 04:35:53;;;;;;;11.65;10.65;;;;;;;11.33;74.37;100494.34;5009647;28;20087;-78
2021/04/11 04:38:28;;;;;;;13.02;11.63;;;;;;;11.28;74.72;100489.34;5008141;28;20041;-77
2021/04/11 04:41:06;;;;;;;13.55;12.25;;;;;;;11.27;75.01;100489.41;5008498;28;20038;-77
2021/04/11 04:43:52;;;;;;;11.57;10.48;;;;;;;11.37;74.45;100477.59;5010785;28;20070;-77
2021/04/11 04:46:42;;;;;;;13.07;11.60;;;;;;;11.27;75.70;100479.81;5009229;28;20048;-78
2021/04/11 04:49:33;;;;;;;13.98;12.52;;;;;;;11.22;75.60;100478.34;5010239;28;20042;-77
2021/04/11 04:52:15;;;;;;;14.18;12.82;;;;;;;11.38;74.65;100476.69;5009261;28;20061;-77
2021/04/11 04:55:06;;;;;;;14.98;13.38;;;;;;;11.27;75.29;100486.81;5010634;28;20065;-77
2021/04/11 04:58:03;;;;;;;15.50;14.00;;;;;;;11.12;76.78;100488.41;5000542;28;20059;-78
2021/04/11 05:00:48;;;;;;;15.82;13.90;;;;;;;11.07;77.28;100492.16;5009035;28;20523;-78
2021/04/11 05:03:34;;;;;;;15.70;14.18;;;;;;;11.23;76.56;100495.69;5007156;28;20038;-77
2021/04/11 05:06:15;;;;;;;16.45;14.63;;;;;;;11.34;76.55;100492.56;5007606;28;20049;-77
2021/04/11 05:09:08;;;;;;;17.75;13.35;;;;;;;11.22;76.60;100491.41;5008412;28;20046;-77
2021/04/11 05:12:04;;;;;;;14.05;12.75;;;;;;;11.30;76.16;100485.84;5007921;28;20125;-77
2021/04/11 05:14:42;;;;;;;14.10;12.80;;;;;;;11.40;75.77;100494.88;5005146;28;20046;-78
2021/04/11 05:17:27;;;;;;;12.05;10.95;;;;;;;11.37;76.04;100501.09;5005455;28;20061;-76
2021/04/11 05:20:03;;;;;;;14.90;12.33;;;;;;;11.45;75.72;100490.28;5005941;28;20044;-76
2021/04/11 05:22:42;;;;;;;12.88;11.55;;;;;;;11.33;76.17;100494.34;5014127;28;20468;-77
2021/04/11 05:25:20;;;;;;;13.90;12.57;;;;;;;11.27;76.91;100494.63;5007213;28;20442;-77
2021/04/11 05:27:51;;;;;;;14.02;12.65;;;;;;;11.21;76.55;100494.94;4990758;28;20120;-76
2021/04/11 05:30:21;;;;;;;21.20;13.93;;;;;;;11.28;76.76;100493.72;5004550;28;20099;-77
2021/04/11 05:32:50;;;;;;;17.00;13.35;;;;;;;11.45;76.13;100480.69;5005711;28;20073;-77
2021/04/11 05:35:17;;;;;;;13.23;11.73;;;;;;;11.19;77.52;100488.97;5001861;28;20130;-74
2021/04/11 05:38:20;;;;;;;13.05;11.68;;;;;;;11.31;77.37;100477.91;5010395;28;20079;-70
2021/04/11 05:41:03;;;;;;;11.65;10.55;;;;;;;11.10;78.79;100471.97;5015712;28;20050;-69
2021/04/11 05:43:36;;;;;;;9.88;8.80;;;;;;;10.92;80.71;100475.47;5009938;28;20037;-70
2021/04/11 05:46:18;;;;;;;10.02;9.07;;;;;;;10.95;81.14;100478.78;5010040;28;20500;-67
2021/04/11 05:49:06;;;;;;;11.93;10.77;;;;;;;10.84;81.34;100470.63;4999656;28;20139;-71
2021/04/11 05:51:41;;;;;;;12.25;10.52;;;;;;;10.95;80.95;100475.31;5007436;28;20443;-69
2021/04/11 05:54:20;;;;;;;15.18;13.68;;;;;;;10.86;81.55;100466.16;4996299;28;20119;-70
2021/04/11 05:56:59;;;;;;;15.13;13.40;;;;;;;11.00;81.12;100476.78;4998250;28;20053;-68
2021/04/11 05:59:38;;;;;;;17.85;14.05;;;;;;;11.03;81.02;100470.59;4995825;28;20440;-68
2021/04/11 06:02:06;;;;;;;16.33;14.73;;;;;;;10.86;81.82;100473.16;5010122;28;20042;-67
2021/04/11 06:04:43;;;;;;;16.10;14.52;;;;;;;10.85;81.59;100472.31;5014309;28;20048;-67
2021/04/11 06:07:32;;;;;;;14.93;13.10;;;;;;;10.73;82.05;100460.69;5002933;28;20080;-70
2021/04/11 06:10:06;;;;;;;14.77;13.20;;;;;;;10.97;81.13;100465.66;5004978;28;20551;-69
2021/04/11 06:13:00;;;;;;;15.60;14.00;;;;;;;10.85;82.10;100479.28;4994523;28;20170;-69
2021/04/11 06:15:39;;;;;;;13.88;12.52;;;;;;;10.88;81.72;100481.75;4992030;28;20080;-73
2021/04/11 06:18:08;;;;;;;14.15;12.75;;;;;;;10.98;81.61;100473.44;4991192;28;20099;-69
2021/04/11 06:20:37;;;;;;;14.50;12.02;;;;;;;10.96;81.91;100472.63;5008242;28;20682;-71
2021/04/11 06:23:25;;;;;;;12.50;11.23;;;;;;;10.93;81.79;100469.34;4999046;28;20074;-72
2021/04/11 06:26:11;;;;;;;12.45;11.25;;;;;;;10.84;82.07;100465.41;5004333;28;20137;-72
2021/04/11 06:28:57;;;;;;;12.82;11.65;;;;;;;11.06;81.44;100470.44;5004590;28;20067;-70
2021/04/11 06:31:40;;;;;;;12.50;11.23;;;;;;;11.09;81.30;100470.31;4996241;28;20170;-70
2021/04/11 06:34:14;;;;;;;14.30;12.27;;;;;;;11.13;80.94;100465.75;4992923;28;20406;-76
2021/04/11 06:36:44;;;;;;;12.38;11.05;;;;;;;11.17;80.93;100464.69;4997255;28;20039;-72
2021/04/11 06:39:26;;;;;;;12.10;10.90;;;;;;;11.09;81.31;100457.25;4992448;28;20133;-70
2021/04/11 06:42:05;;;;;;;11.50;10.30;;;;;;;11.05;81.11;100453.09;4992729;28;20443;-71
2021/04/11 06:44:37;;;;;;;12.73;11.50;;;;;;;10.92;82.05;100446.75;4997487;28;20042;-68
2021/04/11 06:47:20;;;;;;;11.52;10.32;;;;;;;10.98;82.06;100447.34;4997259;28;20053;-72
2021/04/11 06:50:08;;;;;;;13.27;10.40;;;;;;;10.96;82.19;100451.75;5000979;28;20081;-72
2021/04/11 06:53:01;;;;;;;13.55;9.70;;;;;;;10.94;81.65;100453.63;5010108;28;20484;-75
2021/04/11 06:55:46;;;;;;;12.43;9.75;;;;;;;11.12;81.68;100448.41;5002697;28;20050;-70
2021/04/11 06:58:25;;;;;;;10.43;9.32;;;;;;;11.01;81.81;100460.22;4993832;28;20133;-72
2021/04/11 07:01:26;;;;;;;10.50;8.88;;;;;;;11.09;82.09;100449.44;4993797;28;20065;-70
2021/04/11 07:04:11;;;;;;;9.80;8.80;;;;;;;11.20;80.96;100444.53;4971576;28;20133;-69
2021/04/11 07:06:59;;;;;;;9.23;8.25;;;;;;;11.11;81.56;100449.34;4997148;28;20127;-71
2021/04/11 07:09:43;;;;;;;9.90;8.32;;;;;;;11.07;81.41;100450.41;5001770;28;20122;-71
2021/04/11 07:12:50;;;;;;;9.57;8.23;;;;;;;11.07;81.45;100456.47;4996001;28;20453;-69
2021/04/11 07:15:28;;;;;;;13.73;9.45;;;;;;;11.17;81.23;100456.88;4972846;28;20050;-73
2021/04/11 07:18:03;;;;;;;11.27;8.65;;;;;;;11.17;81.85;100467.31;4997249;28;20077;-71
2021/04/11 07:21:06;;;;;;;9.73;7.65;;;;;;;11.11;81.50;100465.84;4993719;28;20093;-71
2021/04/11 07:23:57;;;;;;;12.82;7.72;;;;;;;11.09;82.19;100465.06;4990785;28;20050;-68
2021/04/11 07:27:01;;;;;;;9.35;8.45;;;;;;;11.22;81.32;100470.53;4992816;28;20397;-69
2021/04/11 07:29:56;;;;;;;9.07;8.10;;;;;;;11.18;82.02;100466.38;5001782;28;20054;-70
2021/04/11 07:32:29;;;;;;;12.02;8.30;;;;;;;11.31;80.85;100466.63;4995732;28;20047;-68
2021/04/11 07:35:14;;;;;;;9.95;8.35;;;;;;;11.33;80.82;100463.00;4998694;28;20121;-70
2021/04/11 07:37:59;;;;;;;9.50;8.60;;;;;;;11.34;80.42;100463.84;4993855;28;20119;-72
2021/04/11 07:40:37;;;;;;;14.73;10.20;;;;;;;11.35;80.76;100473.41;5003528;28;20077;-73
2021/04/11 07:43:06;;;;;;;10.48;9.07;;;;;;;11.28;81.11;100470.22;4993100;28;20042;-73
2021/04/11 07:45:49;;;;;;;19.42;9.45;;;;;;;11.38;81.06;100468.00;4996896;28;20122;-70
2021/04/11 07:48:27;;;;;;;11.50;8.57;;;;;;;11.26;81.11;100485.13;4996466;28;20050;-69
2021/04/11 07:50:56;;;;;;;13.65;10.05;;;;;;;11.16;81.82;100478.66;5006680;28;20050;-69
2021/04/11 07:53:34;;;;;;;11.43;9.82;;;;;;;11.29;81.40;100479.75;4997805;28;20050;-70
2021/04/11 07:56:15;;;;;;;17.15;9.65;;;;;;;11.26;80.92;100477.28;4996936;28;20046;-70
2021/04/11 07:59:32;;;;;;;10.40;9.35;;;;;;;11.33;81.87;100477.84;4997957;28;20038;-75
2021/04/11 08:02:08;;;;;;;11.95;9.77;;;;;;;11.47;80.68;100478.00;4939489;28;20134;-76
2021/04/11 08:04:40;;;;;;;14.65;9.85;;;;;;;11.36;81.62;100490.75;4940647;28;20060;-79
2021/04/11 08:07:18;;;;;;;11.07;9.93;;;;;;;11.30;81.43;100488.44;4973247;28;20140;-80
2021/04/11 08:09:49;;;;;;;10.52;9.50;;;;;;;11.27;81.04;100494.63;4991510;28;20048;-79
2021/04/11 08:12:23;;;;;;;12.85;10.57;;;;;;;11.31;81.38;100504.00;4990765;28;20125;-77
2021/04/11 08:15:13;;;;;;;10.73;9.50;;;;;;;11.24;82.32;100494.81;4997241;28;20077;-77
2021/04/11 08:17:58;;;;;;;11.13;9.93;;;;;;;11.39;81.96;100483.59;4996148;28;20472;-80
2021/04/11 08:21:13;;;;;;;13.95;10.25;;;;;;;11.31;81.93;100490.97;4999090;28;20421;-77
2021/04/11 08:24:10;;;;;;;10.40;8.10;;;;;;;11.41;81.95;100491.38;4935103;28;20086;-78
2021/04/11 08:26:43;;;;;;;11.52;8.50;;;;;;;11.39;81.31;100493.19;5006251;28;20087;-77
2021/04/11 08:29:31;;;;;;;8.95;8.05;;;;;;;11.45;81.57;100496.38;4998395;28;20035;-79
2021/04/11 08:32:36;;;;;;;11.73;8.15;;;;;;;11.42;81.17;100508.72;5001848;28;20125;-78
2021/04/11 08:35:03;;;;;;;10.30;7.97;;;;;;;11.32;81.34;100503.09;4984534;28;20042;-80
2021/04/11 08:38:12;;;;;;;8.95;7.50;;;;;;;11.37;80.98;100495.88;4995926;28;20058;-79
2021/04/11 08:40:56;;;;;;;10.00;7.97;;;;;;;11.44;81.33;100494.66;4992754;28;20074;-76
2021/04/11 08:44:01;;;;;;;11.45;7.40;;;;;;;11.52;81.51;100478.63;4994974;28;20125;-73
2021/04/11 08:46:33;;;;;;;9.95;8.60;;;;;;;11.32;81.68;100500.47;4991179;28;20047;-73
2021/04/11 08:49:08;;;;;;;9.13;7.60;;;;;;;11.45;81.64;100495.50;4997513;28;20128;-73
2021/04/11 08:52:12;;;;;;;7.88;7.10;;;;;;;11.32;82.35;100497.88;4990572;28;20070;-73
2021/04/11 08:54:45;;;;;;;9.80;6.70;;;;;;;11.34;81.31;100519.50;4988429;28;20069;-73
2021/04/11 08:57:44;;;;;;;9.73;6.78;;;;;;;11.48;80.94;100493.59;5006731;28;20449;-72
2021/04/11 09:00:23;;;;;;;9.43;7.53;;;;;;;11.48;81.64;100513.63;5012289;28;20092;-73
2021/04/11 09:03:20;;;;;;;5.82;5.13;;;;;;;11.67;80.46;100516.19;5012321;28;20041;-72
2021/04/11 09:06:11;;;;;;;7.32;6.25;;;;;;;11.54;82.04;100498.50;5012387;28;20046;-73
2021/04/11 09:08:44;;;;;;;8.10;6.20;;;;;;;11.59;81.48;100520.91;5001638;28;20470;-73
2021/04/11 09:11:13;;;;;;;8.90;6.77;;;;;;;11.50;82.41;100499.59;5010480;28;20091;-72
2021/04/11 09:14:05;;;;;;;7.03;6.32;;;;;;;11.64;82.03;100513.72;5003087;28;20069;-72
2021/04/11 09:17:05;;;;;;;9.60;6.88;;;;;;;11.79;80.81;100513.78;4993834;28;20046;-73
2021/04/11 09:20:08;;;;;;;10.88;6.47;;;;;;;11.64;80.89;100508.47;4995778;28;20137;-72
2021/04/11 09:23:32;;;;;;;7.00;6.28;;;;;;;11.85;81.09;100511.81;5007475;28;20046;-72
2021/04/11 09:26:40;;;;;;;6.78;5.22;;;;;;;11.98;81.05;100518.94;4949982;29;20039;-69
2021/04/11 09:29:26;;;;;;;6.57;5.85;;;;;;;11.93;79.70;100528.78;4930924;29;20142;-74
2021/04/11 09:32:05;;;;;;;6.95;5.68;;;;;;;11.91;80.44;100528.00;4992934;28;20103;-76
2021/04/11 09:35:19;;;;;;;5.63;4.85;;;;;;;12.02;80.28;100530.06;5001963;28;20057;-67
2021/04/11 09:37:46;;;;;;;7.07;6.38;;;;;;;12.16;79.58;100535.44;4934637;28;20154;-67
2021/04/11 09:40:30;;;;;;;7.47;5.80;;;;;;;12.29;78.99;100533.88;5011632;28;20549;-67
2021/04/11 09:43:18;;;;;;;6.70;5.18;;;;;;;12.06;79.93;100542.91;5010569;28;20049;-79
2021/04/11 09:46:22;;;;;;;11.73;6.10;;;;;;;12.14;80.02;100539.88;5012063;28;20073;-81
2021/04/11 09:49:13;;;;;;;7.85;6.45;;;;;;;12.26;79.59;100548.88;5013057;28;20050;-81
2021/04/11 09:51:59;;;;;;;7.50;6.70;;;;;;;12.31;79.82;100552.09;5013052;28;20492;-80
2021/04/11 09:54:43;;;;;;;9.10;8.20;;;;;;;12.39;80.30;100555.16;5008859;28;20046;-69
2021/04/11 09:57:16;;;;;;;11.98;5.85;;;;;;;12.31;79.99;100554.72;5011277;28;20069;-73
2021/04/11 10:00:27;;;;;;;7.43;6.05;;;;;;;12.23;80.12;100554.25;5011220;28;20053;-70
2021/04/11 10:03:13;;;;;;;10.43;5.95;;;;;;;12.11;82.26;100555.75;4983007;28;20503;-71
2021/04/11 10:06:04;;;;;;;9.27;6.65;;;;;;;12.11;82.05;100552.28;5009703;28;20460;-72
2021/04/11 10:09:22;;;;;;;8.43;7.65;;;;;;;12.12;82.06;100561.81;5009585;28;20042;-71
2021/04/11 10:11:59;;;;;;;12.10;8.98;;;;;;;12.20;82.77;100573.56;4964572;28;20109;-68
2021/04/11 10:14:38;;;;;;;11.25;7.20;;;;;;;12.15;82.59;100566.88;4948783;29;20131;-73
2021/04/11 10:17:33;;;;;;;10.82;8.05;;;;;;;12.19;82.75;100563.16;4989675;28;20042;-72
2021/04/11 10:20:12;;;;;;;7.78;6.80;;;;;;;12.19;82.62;100563.16;5007057;28;20066;-72
2021/04/11 10:22:58;;;;;;;11.13;7.75;;;;;;;12.29;83.12;100567.00;5011414;28;20132;-73
2021/04/11 10:25:42;;;;;;;10.60;7.20;;;;;;;12.32;83.63;100566.84;5011211;28;20042;-73
2021/04/11 10:28:18;;;;;;;9.18;7.15;;;;;;;12.26;83.81;100578.47;5007953;28;20049;-73
2021/04/11 10:30:52;;;;;;;8.60;6.72;;;;;;;12.35;84.48;100576.28;5010578;28;20042;-72
2021/04/11 10:33:40;;;;;;;8.82;7.93;;;;;;;12.24;84.19;100577.69;5008723;28;20046;-72
2021/04/11 10:36:19;;;;;;;10.63;7.38;;;;;;;12.35;84.35;100584.13;5010352;28;20488;-65
2021/04/11 10:38:57;;;;;;;9.07;8.27;;;;;;;12.35;84.29;100584.97;5007415;28;20439;-71
2021/04/11 10:41:41;;;;;;;10.23;8.35;;;;;;;12.53;83.19;100586.66;4994874;28;20096;-70
2021/04/11 10:44:27;;;;;;;9.00;8.30;;;;;;;12.60;82.60;100584.53;5008838;28;20046;-70
2021/04/11 10:47:21;;;;;;;9.93;7.65;;;;;;;12.47;81.83;100586.97;5001455;28;20400;-70
2021/04/11 10:50:15;;;;;;;6.70;6.07;;;;;;;12.50;81.94;100585.97;5005512;28;20049;-70
2021/04/11 10:52:44;;;;;;;5.18;4.32;;;;;;;12.63;80.71;100594.03;5001853;28;20165;-68
2021/04/11 10:55:25;;;;;;;5.63;4.53;;;;;;;12.67;79.10;100592.91;5001102;28;20038;-68
2021/04/11 10:58:11;;;;;;;3.95;3.58;;;;;;;12.74;79.04;100587.28;4999305;28;20047;-68
2021/04/11 11:01:09;;;;;;;3.78;3.47;;;;;;;12.76;79.40;100589.81;5004313;28;20038;-68
2021/04/11 11:04:12;;;;;;;3.92;3.63;;;;;;;12.81;79.30;100593.03;4998530;28;20423;-67
2021/04/11 11:06:57;;;;;;;4.95;4.47;;;;;;;12.84;79.60;100598.09;5008215;28;20033;-67
2021/04/11 11:09:44;;;;;;;4.50;4.10;;;;;;;12.96;78.55;100597.44;5001804;28;20141;-67
2021/04/11 11:12:42;;;;;;;4.15;3.75;;;;;;;12.98;78.18;100606.03;4999520;28;20126;-65
2021/04/11 11:15:12;;;;;;;4.00;3.70;;;;;;;13.04;77.60;100605.69;4997447;28;20125;-70
2021/04/11 11:18:00;;;;;;;4.13;3.83;;;;;;;13.05;78.33;100596.94;4996353;28;20058;-70
2021/04/11 11:20:36;;;;;;;4.35;3.95;;;;;;;13.05;79.18;100591.72;4999285;28;20537;-76
2021/04/11 11:23:39;;;;;;;4.82;4.32;;;;;;;13.18;78.69;100598.88;4993562;28;20050;-75
2021/04/11 11:26:24;;;;;;;4.97;4.57;;;;;;;13.19;79.35;100604.00;4996896;28;20070;-77
2021/04/11 11:29:09;;;;;;;4.47;4.18;;;;;;;13.22;79.67;100600.44;4994237;28;20080;-74
2021/04/11 11:32:12;;;;;;;4.40;4.00;;;;;;;13.33;78.82;100603.31;5003643;28;20470;-74
2021/04/11 11:34:59;;;;;;;4.65;4.25;;;;;;;13.25;78.66;100605.47;4993670;28;20050;-75
2021/04/11 11:37:35;;;;;;;4.50;4.10;;;;;;;13.32;78.71;100597.22;4992165;28;20050;-76
2021/04/11 11:40:33;;;;;;;4.30;4.00;;;;;;;13.53;78.16;100605.66;5009394;28;20045;-74
2021/04/11 11:43:11;;;;;;;4.43;4.03;;;;;;;13.45;79.52;100609.63;4983720;28;20042;-74
2021/04/11 11:45:46;;;;;;;5.35;4.85;;;;;;;13.57;79.35;100616.78;4996259;28;20509;-75
2021/04/11 11:48:19;;;;;;;4.57;4.18;;;;;;;13.59;79.94;100620.19;5005340;28;20042;-75
2021/04/11 11:51:07;;;;;;;4.88;4.38;;;;;;;13.71;78.46;100616.00;5006926;28;20069;-76
2021/04/11 11:53:53;;;;;;;4.68;4.15;;;;;;;13.63;77.02;100624.28;5003451;28;20090;-75
2021/04/11 11:56:26;;;;;;;4.03;3.72;;;;;;;13.91;77.33;100623.56;5007718;28;20046;-75
2021/04/11 11:59:08;;;;;;;5.05;3.47;;;;;;;13.89;77.32;100626.25;5007059;28;20396;-75
2021/04/11 12:01:46;;;;;;;4.78;4.32;;;;;;;13.96;77.53;100618.91;5004649;28;20034;-75
2021/04/11 12:04:32;;;;;;;6.38;5.78;;;;;;;13.95;78.43;100619.81;5003441;28;20084;-76
2021/04/11 12:07:05;;;;;;;5.22;4.00;;;;;;;14.18;76.97;100622.91;5000821;28;20042;-75
2021/04/11 12:09:45;;;;;;;4.00;3.70;;;;;;;14.30;76.17;100614.28;5003079;28;20100;-75
2021/04/11 12:12:25;;;;;;;3.75;3.53;;;;;;;14.41;76.39;100622.38;5001002;28;20389;-75
2021/04/11 12:15:04;;;;;;;3.88;3.55;;;;;;;14.52;75.09;100617.34;5000723;28;20043;-77